createdAt,value
2023-04-05T00:02:01.684Z,-1.76
2023-04-05T00:07:09.727Z,-1.94
2023-04-05T00:12:13.694Z,-1.59
2023-04-05T00:17:19.171Z,-1.64
2023-04-05T00:22:25.675Z,-1.54
2023-04-05T00:27:30.072Z,-1.64
2023-04-05T00:32:35.491Z,-1.16
2023-04-05T00:37:39.607Z,-1.97
2023-04-05T00:42:43.519Z,-1.60
2023-04-05T00:47:49.069Z,-1.98
2023-04-05T00:52:53.064Z,-1.93
2023-04-05T00:57:57.314Z,-1.87
2023-04-05T01:03:04.378Z,-1.66
2023-04-05T01:08:16.205Z,-1.92
2023-04-05T01:13:20.570Z,-2.05
2023-04-05T01:18:31.313Z,-2.18
2023-04-05T01:23:45.413Z,-2.05
2023-04-05T01:29:32.284Z,-1.75
2023-04-05T01:34:45.676Z,-1.94
2023-04-05T01:39:50.712Z,-1.60
2023-04-05T01:44:56.133Z,-1.16
2023-04-05T01:50:01.679Z,-0.98
2023-04-05T01:55:05.896Z,-1.82
2023-04-05T02:00:11.014Z,-1.86
2023-04-05T02:05:19.308Z,-0.88
2023-04-05T02:10:23.963Z,-1.97
2023-04-05T02:15:27.862Z,-1.40
2023-04-05T02:20:33.700Z,-0.78
2023-04-05T02:25:37.342Z,-1.04
2023-04-05T02:30:42.031Z,0.16
2023-04-05T02:35:51.767Z,-1.36
2023-04-05T02:40:55.781Z,-1.02
2023-04-05T02:45:59.761Z,-1.12
2023-04-05T02:51:05.275Z,-1.21
2023-04-05T02:56:09.734Z,-1.28
2023-04-05T03:01:19.622Z,-1.62
2023-04-05T03:06:26.557Z,-1.24
2023-04-05T03:11:31.214Z,-1.16
2023-04-05T03:16:40.201Z,-0.44
2023-04-05T03:21:54.845Z,-1.26
2023-04-05T03:27:09.001Z,-2.03
2023-04-05T03:32:32.881Z,-2.00
2023-04-05T03:37:46.534Z,-2.51
2023-04-05T03:42:51.397Z,-2.20
2023-04-05T03:47:55.918Z,-1.63
2023-04-05T03:53:01.611Z,-2.45
2023-04-05T03:58:06.279Z,-1.12
2023-04-05T04:03:14.104Z,-0.48
2023-04-05T04:08:23.391Z,0.03
2023-04-05T04:13:27.445Z,-0.35
2023-04-05T04:18:47.302Z,0.28
2023-04-05T04:24:09.542Z,0.05
2023-04-05T04:29:33.631Z,-1.07
2023-04-05T04:34:56.020Z,-1.65
2023-04-05T04:40:39.990Z,-1.11
2023-04-05T04:46:06.739Z,0.18
2023-04-05T04:51:18.470Z,0.86
2023-04-05T04:56:23.755Z,-0.42
2023-04-05T05:01:28.702Z,-1.01
2023-04-05T05:06:32.748Z,-1.51
2023-04-05T05:11:38.292Z,-2.25
2023-04-05T05:16:45.871Z,-2.46
2023-04-05T05:21:50.259Z,-2.00
2023-04-05T05:26:55.736Z,-1.33
2023-04-05T05:31:59.703Z,-0.89
2023-04-05T05:37:03.666Z,0.24
2023-04-05T05:42:09.092Z,0.60
2023-04-05T05:47:13.160Z,-0.18
2023-04-05T05:52:17.231Z,-0.26
2023-04-05T05:57:23.301Z,-0.58
2023-04-05T06:02:27.614Z,-0.10
2023-04-05T06:07:31.768Z,-0.57
2023-04-05T06:12:37.171Z,-0.68
2023-04-05T06:17:42.804Z,-0.73
2023-04-05T06:22:46.814Z,0.25
2023-04-05T06:27:52.281Z,-0.36
2023-04-05T06:32:56.298Z,-0.19
2023-04-05T06:38:00.393Z,0.04
2023-04-05T06:43:06.084Z,0.67
2023-04-05T06:48:10.088Z,0.72
2023-04-05T06:53:18.324Z,1.11
2023-04-05T06:58:24.511Z,1.64
2023-04-05T07:03:28.641Z,2.24
2023-04-05T07:08:34.123Z,2.00
2023-04-05T07:13:39.830Z,1.20
2023-04-05T07:18:43.804Z,1.87
2023-04-05T07:23:47.711Z,2.71
2023-04-05T07:28:53.576Z,2.62
2023-04-05T07:33:58.286Z,4.50
2023-04-05T07:39:02.445Z,1.80
2023-04-05T07:44:07.890Z,2.27
2023-04-05T07:49:11.928Z,2.45
2023-04-05T07:54:15.890Z,2.25
2023-04-05T07:59:21.180Z,0.78
2023-04-05T08:04:26.395Z,0.25
2023-04-05T08:09:30.704Z,0.43
2023-04-05T08:14:37.075Z,0.50
2023-04-05T08:19:40.993Z,0.30
2023-04-05T08:24:45.078Z,0.51
2023-04-05T08:29:50.709Z,0.70
2023-04-05T08:34:54.643Z,0.91
2023-04-05T08:39:58.935Z,2.14
2023-04-05T08:45:05.540Z,1.54
2023-04-05T08:50:13.653Z,1.27
2023-04-05T08:55:18.305Z,1.59
2023-04-05T09:00:23.963Z,1.64
2023-04-05T09:05:28.523Z,2.65
2023-04-05T09:10:32.989Z,4.25
2023-04-05T09:15:40.359Z,3.97
2023-04-05T09:20:44.461Z,2.99
2023-04-05T09:25:52.735Z,3.67
2023-04-05T09:30:58.101Z,3.36
2023-04-05T09:36:02.155Z,2.85
2023-04-05T09:41:10.611Z,4.06
2023-04-05T09:46:31.312Z,5.44
2023-04-05T09:51:37.002Z,3.53
2023-04-05T09:56:57.018Z,3.79
2023-04-05T10:02:03.980Z,4.40
2023-04-05T10:07:08.673Z,2.62
2023-04-05T10:12:19.617Z,3.02
2023-04-05T10:17:32.837Z,3.37
2023-04-05T10:22:42.328Z,3.45
2023-04-05T10:27:49.579Z,4.37
2023-04-05T10:33:12.617Z,4.51
2023-04-05T10:38:25.215Z,6.27
2023-04-05T10:43:30.343Z,6.34
2023-04-05T10:48:53.881Z,4.36
2023-04-05T10:53:58.198Z,4.88
2023-04-05T10:59:03.768Z,6.78
2023-04-05T11:04:15.153Z,6.71
2023-04-05T11:09:20.980Z,6.11
2023-04-05T11:14:26.540Z,5.60
2023-04-05T11:19:52.404Z,6.32
2023-04-05T11:24:58.374Z,5.04
2023-04-05T11:30:03.436Z,5.33
2023-04-05T11:35:14.140Z,6.10
2023-04-05T11:40:29.660Z,7.39
2023-04-05T11:45:35.215Z,6.38
2023-04-05T11:50:42.813Z,5.08
2023-04-05T11:55:50.619Z,7.34
2023-04-05T12:01:01.935Z,5.32
2023-04-05T12:06:08.915Z,5.21
2023-04-05T12:11:13.603Z,5.70
2023-04-05T12:16:17.659Z,5.60
2023-04-05T12:21:24.385Z,6.56
2023-04-05T12:26:28.993Z,7.30
2023-04-05T12:31:40.359Z,6.21
2023-04-05T12:36:48.621Z,5.18
2023-04-05T12:42:00.988Z,3.96
2023-04-05T12:47:09.226Z,6.89
2023-04-05T12:52:20.902Z,5.90
2023-04-05T12:57:31.520Z,7.65
2023-04-05T13:02:35.966Z,6.38
2023-04-05T13:07:41.509Z,7.83
2023-04-05T13:12:45.608Z,9.32
2023-04-05T13:17:52.142Z,8.71
2023-04-05T13:22:57.588Z,10.89
2023-04-05T13:28:01.645Z,9.30
2023-04-05T13:33:05.926Z,6.70
2023-04-05T13:38:11.364Z,5.93
2023-04-05T13:43:15.432Z,4.26
2023-04-05T13:48:19.343Z,6.58
2023-04-05T13:53:27.244Z,6.35
2023-04-05T13:58:32.424Z,5.69
2023-04-05T14:03:36.624Z,7.47
2023-04-05T14:08:42.172Z,6.48
2023-04-05T14:13:46.124Z,5.05
2023-04-05T14:18:50.416Z,4.23
2023-04-05T14:23:57.207Z,6.17
2023-04-05T14:29:01.615Z,7.31
2023-04-05T14:34:05.852Z,7.43
2023-04-05T14:39:11.598Z,7.37
2023-04-05T14:44:15.576Z,8.89
2023-04-05T14:49:19.628Z,8.36
2023-04-05T14:54:25.373Z,6.28
2023-04-05T14:59:31.008Z,4.49
2023-04-05T15:04:35.443Z,7.49
2023-04-05T15:09:41.033Z,9.07
2023-04-05T15:14:45.932Z,7.95
2023-04-05T15:19:50.113Z,7.01
2023-04-05T15:24:57.095Z,4.79
2023-04-05T15:30:01.365Z,5.25
2023-04-05T15:35:06.187Z,5.38
2023-04-05T15:40:12.514Z,6.73
2023-04-05T15:45:16.593Z,7.32
2023-04-05T15:50:21.856Z,7.21
2023-04-05T15:55:27.308Z,4.76
2023-04-05T16:00:32.812Z,4.04
2023-04-05T16:05:36.841Z,4.34
2023-04-05T16:10:42.907Z,4.31
2023-04-05T16:15:47.018Z,5.30
2023-04-05T16:20:52.109Z,5.43
2023-04-05T16:25:57.676Z,4.11
2023-04-05T16:31:01.766Z,3.54
2023-04-05T16:36:06.374Z,4.07
2023-04-05T16:41:12.088Z,3.29
2023-04-05T16:46:16.097Z,2.28
2023-04-05T16:51:20.262Z,2.25
2023-04-05T16:56:25.964Z,2.72
2023-04-05T17:01:30.617Z,1.81
2023-04-05T17:06:35.027Z,2.15
2023-04-05T17:11:40.569Z,1.53
2023-04-05T17:16:44.708Z,1.73
2023-04-05T17:21:48.885Z,1.95
2023-04-05T17:26:54.515Z,2.20
2023-04-05T17:31:58.779Z,1.35
2023-04-05T17:37:03.105Z,1.09
2023-04-05T17:42:08.644Z,0.88
2023-04-05T17:47:13.431Z,1.02
2023-04-05T17:52:18.286Z,1.08
2023-04-05T17:57:23.855Z,1.07
2023-04-05T18:02:28.559Z,1.18
2023-04-05T18:07:36.020Z,1.23
2023-04-05T18:12:41.503Z,1.18
2023-04-05T18:17:46.243Z,0.74
2023-04-05T18:22:50.528Z,1.11
2023-04-05T18:27:56.530Z,0.49
2023-04-05T18:33:00.812Z,0.74
2023-04-05T18:38:06.486Z,0.79
2023-04-05T18:43:12.037Z,0.95
2023-04-05T18:48:17.387Z,1.16
2023-04-05T18:53:21.470Z,0.83
2023-04-05T18:58:26.962Z,0.86
2023-04-05T19:03:31.216Z,0.61
2023-04-05T19:08:35.460Z,0.51
2023-04-05T19:13:41.477Z,0.00
2023-04-05T19:18:45.947Z,0.39
2023-04-05T19:23:50.452Z,1.06
2023-04-05T19:28:56.265Z,0.88
2023-04-05T19:34:00.119Z,0.59
2023-04-05T19:39:04.636Z,-0.05
2023-04-05T19:44:12.492Z,0.43
2023-04-05T19:49:34.154Z,0.40
2023-04-05T19:54:38.280Z,0.55
2023-04-05T19:59:44.236Z,0.47
2023-04-05T20:04:48.681Z,0.46
2023-04-05T20:09:54.742Z,0.09
2023-04-05T20:15:00.362Z,0.02
2023-04-05T20:20:07.379Z,-0.18
2023-04-05T20:25:38.263Z,0.06
2023-04-05T20:30:44.189Z,0.00
2023-04-05T20:35:48.834Z,0.48
2023-04-05T20:40:52.948Z,0.08
2023-04-05T20:45:58.376Z,0.31
2023-04-05T20:51:05.979Z,0.03
2023-04-05T20:56:11.255Z,0.40
2023-04-05T21:01:16.815Z,0.04
2023-04-05T21:06:21.293Z,-0.02
2023-04-05T21:11:26.424Z,-0.47
2023-04-05T21:16:32.059Z,-0.75
2023-04-05T21:21:36.081Z,-0.89
2023-04-05T21:26:40.120Z,-0.91
2023-04-05T21:31:45.610Z,-0.92
2023-04-05T21:36:49.768Z,-1.05
2023-04-05T21:41:53.894Z,-0.77
2023-04-05T21:47:00.187Z,-0.43
2023-04-05T21:52:04.502Z,-0.74
2023-04-05T21:57:08.522Z,-1.06
2023-04-05T22:02:13.974Z,-1.48
2023-04-05T22:07:18.344Z,-1.66
2023-04-05T22:12:22.617Z,-1.80
2023-04-05T22:17:28.058Z,-1.73
2023-04-05T22:22:32.073Z,-1.79
2023-04-05T22:27:36.327Z,-1.54
2023-04-05T22:32:42.312Z,-1.81
2023-04-05T22:37:46.383Z,-1.90
2023-04-05T22:42:50.656Z,-1.60
2023-04-05T22:47:56.121Z,-1.80
2023-04-05T22:53:00.330Z,-1.66
2023-04-05T22:58:04.874Z,-1.68
2023-04-05T23:03:10.321Z,-1.06
2023-04-05T23:08:14.376Z,-1.59
2023-04-05T23:13:18.433Z,-1.54
2023-04-05T23:18:23.899Z,-1.64
2023-04-05T23:23:27.902Z,-1.71
2023-04-05T23:28:31.938Z,-1.60
2023-04-05T23:33:37.399Z,-1.61
2023-04-05T23:38:41.355Z,-1.54
2023-04-05T23:43:46.115Z,-1.62
2023-04-05T23:48:51.464Z,-1.49
2023-04-05T23:53:55.461Z,-1.74
2023-04-05T23:58:59.441Z,-1.74
